Seboeis Plt, Maine
Current Conditions -  °F | °C
As of 8:53 AM on Monday 20 Oct 2014 (Local Time) from KBGR Reporting Station
Broken Clouds Broken Clouds  
Wind Chill: 35°   Ceiling: 15000
Heat Index: 41°   Visibility: 10mi
Dew Point: 26°   Wind: 9mph
Humidity: 55%   Direction: 280°W
Pressure: 29.93"   Gusts: 18mph
Location:  45.1976°N, 68.703°W
Report Text: KBGR 201253Z 28008G16KT 10SM SCT040 BKN150 05/M03 A2993 RMK AO2 SLP135 T00501033
Loading
Personal Weather Stations






























Interactive Weather Map New forecast layout! Learn more

10-Day Weather Forecast

Advertisements
Track Severe Weather on mobile